Terminal Aerodrome Forecast
Issued by NWS Louisville, KY

Home | Current Version | Previous Version | Graphics & Text | Print | Product List | Glossary On
Versions: 1 2 3 4 5 6 7 8 9 10 11 12 13 14 15 16
000
FTUS43 KLMK 261100
TAFSDF
TAF
KSDF 261120Z 2612/2718 34007KT P6SM SKC
     FM261500 22004KT P6SM SCT250
     FM270000 35004KT P6SM VCSH BKN040
     FM271100 32008KT P6SM SCT250=

USA.gov is the U.S. government's official web portal to all federal, state and local government web resources and services.